Mesa.AZweather.com - Mesa, AZ
   Red Mountain Frwy and University Dr., El 1518 ft.
       --- Monday  August 22, 2022 ---
 
 High Temperature ..  97F at 15:44
 Low Temperature ...  76F at 01:54
 
 High Humidity .....  74% at 03:21
 Low Humidity ......  33% at 15:51
 
 High Barometer ....  30.03 at 08:15
 Low Barometer .....  29.83 at 18:38
 
 High Dew Point ....  70F at 08:39
 Low Dew Point .....  60F at 20:04
 
 Rainfall Total ....  0.00 in.
 
 High Wind Speed ...  ---
                     
 
 Time   Temp  Humi  Rain     Baro  DewPt  Wind
00:00,  79F, 61%, 0.00 in, 29.98, 64F, ---
00:30,  79F, 67%, 0.00 in, 29.98, 67F, ---
01:00,  78F, 69%, 0.00 in, 29.97, 68F, ---
01:30,  77F, 71%, 0.00 in, 29.97, 67F, ---
02:00,  77F, 72%, 0.00 in, 29.96, 67F, ---
02:30,  77F, 72%, 0.00 in, 29.97, 67F, ---
03:00,  77F, 72%, 0.00 in, 29.98, 67F, ---
03:30,  77F, 74%, 0.00 in, 29.98, 68F, ---
04:00,  76F, 74%, 0.00 in, 29.98, 66F, ---
04:30,  76F, 73%, 0.00 in, 29.98, 66F, ---
05:00,  76F, 72%, 0.00 in, 29.98, 66F, ---
05:30,  76F, 72%, 0.00 in, 29.98, 66F, ---
06:00,  76F, 72%, 0.00 in, 29.99, 66F, ---
06:30,  76F, 73%, 0.00 in, 29.99, 66F, ---
07:00,  77F, 72%, 0.00 in, 30.01, 67F, ---
07:30,  78F, 71%, 0.00 in, 30.01, 69F, ---
08:00,  78F, 71%, 0.00 in, 30.01, 69F, ---
08:30,  81F, 67%, 0.00 in, 30.01, 69F, ---
09:00,  83F, 63%, 0.00 in, 30.02, 69F, ---
09:30,  84F, 58%, 0.00 in, 30.02, 68F, ---
10:00,  86F, 54%, 0.00 in, 30.01, 67F, ---
10:30,  87F, 50%, 0.00 in, 30.01, 67F, ---
11:00,  89F, 46%, 0.00 in, 30.01, 66F, ---
11:30,  90F, 45%, 0.00 in, 30.00, 65F, ---
12:00,  93F, 42%, 0.00 in, 29.98, 67F, ---
12:30,  92F, 41%, 0.00 in, 29.98, 64F, ---
13:00,  93F, 40%, 0.00 in, 29.95, 65F, ---
13:30,  94F, 38%, 0.00 in, 29.93, 64F, ---
14:00,  94F, 37%, 0.00 in, 29.92, 63F, ---
14:30,  95F, 37%, 0.00 in, 29.90, 65F, ---
15:00,  96F, 35%, 0.00 in, 29.89, 65F, ---
15:30,  96F, 34%, 0.00 in, 29.88, 64F, ---
16:00,  97F, 33%, 0.00 in, 29.87, 63F, ---
16:30,  96F, 34%, 0.00 in, 29.85, 64F, ---
17:00,  96F, 34%, 0.00 in, 29.85, 64F, ---
17:30,  95F, 35%, 0.00 in, 29.85, 63F, ---
18:00,  95F, 35%, 0.00 in, 29.84, 63F, ---
18:30,  94F, 36%, 0.00 in, 29.84, 62F, ---
19:00,  92F, 38%, 0.00 in, 29.85, 62F, ---
19:30,  90F, 38%, 0.00 in, 29.86, 61F, ---
20:00,  89F, 39%, 0.00 in, 29.87, 61F, ---
20:30,  87F, 41%, 0.00 in, 29.87, 61F, ---
21:00,  85F, 44%, 0.00 in, 29.88, 60F, ---
21:30,  84F, 47%, 0.00 in, 29.88, 62F, ---
22:00,  83F, 49%, 0.00 in, 29.88, 61F, ---
22:30,  83F, 50%, 0.00 in, 29.88, 62F, ---
23:00,  82F, 52%, 0.00 in, 29.88, 63F, ---
23:30,  82F, 55%, 0.00 in, 29.88, 65F, ---
23:59,  81F, 56%, 0.00 in, 29.87, 63F, ---